Breeze Hill, South Carolina
Current Conditions -  °F | °C
As of 7:53 AM on Monday 22 Dec 2014 (Local Time) from KDNL Reporting Station
Haze Haze  
Wind Chill: 42°   Ceiling: 400
Heat Index: 46°   Visibility: 3mi
Dew Point: 46°   Wind: 8mph
Humidity: 100%   Direction: 40°NE
Pressure: 30.09"   Gusts: NA
Location:  33.5159°N, 81.8379°W
Report Text: KDNL 221253Z AUTO 04007KT 3SM BR OVC004 08/08 A3009 RMK AO2 SLP189 T00780078
Loading
Personal Weather Stations






























Interactive Weather Map New forecast layout! Learn more

10-Day Weather Forecast

Advertisements
Track Severe Weather on mobile